Time;durP1;ratioP1;P1;durP2;ratioP2;P2;SDS_P1;SDS_P2;PMS_P1;PMS_P2;Temp;Humidity;BMP_temperature;BMP_pressure;BME280_temperature;BME280_humidity;BME280_pressure;Samples;Min_cycle;Max_cycle;Signal;HPM_P1;HPM_P2
2022/01/23 00:01:25;;;;;;;;;49.00;34.50;;;;;7.04;80.95;103276.09;5060831;28;45249;-63
2022/01/23 00:03:50;;;;;;;;;48.25;37.50;;;;;7.09;80.72;103278.78;5051241;28;45575;-66
2022/01/23 00:06:16;;;;;;;;;44.25;35.25;;;;;7.08;80.66;103275.34;5058716;28;45981;-66
2022/01/23 00:08:41;;;;;;;;;57.25;38.50;;;;;7.04;80.51;103278.66;5061859;28;45336;-66
2022/01/23 00:11:07;;;;;;;;;45.00;37.00;;;;;6.99;80.85;103270.75;5061680;28;45333;-68
2022/01/23 00:19:01;;;;;;;;;30.25;22.25;;;;;6.99;80.95;103283.69;5061765;28;45394;-66
2022/01/23 00:21:26;;;;;;;;;47.75;34.75;;;;;6.98;80.59;103269.00;5062810;28;45311;-74
2022/01/23 00:31:45;;;;;;;;;44.00;31.25;;;;;6.97;80.62;103258.63;5059379;28;45306;-67
2022/01/23 00:34:10;;;;;;;;;54.50;35.00;;;;;6.91;80.46;103263.63;5059414;28;45367;-67
2022/01/23 00:36:35;;;;;;;;;54.50;33.00;;;;;6.88;80.92;103256.69;5059092;28;45594;-67
2022/01/23 00:39:03;;;;;;;;;53.75;38.75;;;;;6.90;80.73;103257.59;5059312;28;45679;-67
2022/01/23 00:41:28;;;;;;;;;56.25;38.75;;;;;6.92;80.54;103253.34;5057607;28;45396;-67
2022/01/23 00:43:54;;;;;;;;;51.25;35.50;;;;;6.91;80.66;103246.41;5059204;28;45446;-67
2022/01/23 00:49:30;;;;;;;;;43.50;32.50;;;;;6.89;80.85;103253.25;5059263;28;45505;-67
2022/01/23 00:51:38;;;;;;;;;48.75;36.50;;;;;6.88;80.55;103258.38;5052943;28;45443;-66
2022/01/23 00:54:09;;;;;;;;;45.25;33.25;;;;;6.81;80.53;103249.59;5059155;28;45566;-66
2022/01/23 00:56:35;;;;;;;;;39.50;30.75;;;;;6.78;80.81;103252.06;5058716;28;47568;-66
2022/01/23 00:59:01;;;;;;;;;43.00;33.00;;;;;6.78;80.82;103244.31;5058780;28;45608;-66
2022/01/23 01:01:26;;;;;;;;;46.50;38.50;;;;;6.73;80.72;103238.16;5058715;28;45494;-66
2022/01/23 01:03:52;;;;;;;;;49.75;36.25;;;;;6.75;80.60;103235.59;5049478;28;45345;-66
2022/01/23 01:06:18;;;;;;;;;48.25;32.50;;;;;6.82;80.94;103234.97;5073049;28;47008;-66
2022/01/23 01:08:44;;;;;;;;;41.25;32.75;;;;;6.67;80.78;103222.47;5061098;28;45334;-66
2022/01/23 01:35:27;;;;;;;;;37.00;30.75;;;;;6.75;80.62;103236.47;5057226;28;45552;-65
2022/01/23 01:37:53;;;;;;;;;38.75;29.00;;;;;6.77;80.96;103237.41;5059429;28;46221;-66
2022/01/23 01:40:20;;;;;;;;;40.00;32.75;;;;;6.78;80.65;103241.72;5083022;27;45593;-68
2022/01/23 01:42:46;;;;;;;;;44.25;31.75;;;;;6.72;80.70;103239.84;5059452;28;45857;-67
2022/01/23 01:45:12;;;;;;;;;48.25;29.00;;;;;6.70;80.46;103241.53;5058621;28;45590;-67
2022/01/23 01:47:46;;;;;;;;;30.75;22.75;;;;;6.68;80.37;103226.81;5059213;28;46670;-67
2022/01/23 01:50:11;;;;;;;;;30.50;23.50;;;;;6.65;80.35;103235.34;5058773;28;45962;-67
2022/01/23 01:52:36;;;;;;;;;30.25;23.50;;;;;6.60;80.27;103228.28;5058412;28;45491;-66
2022/01/23 01:55:06;;;;;;;;;31.00;22.75;;;;;6.59;80.06;103222.25;5059050;28;45326;-66
2022/01/23 01:57:39;;;;;;;;;36.75;30.00;;;;;6.60;80.27;103229.16;5058773;28;46401;-66
2022/01/23 02:03:20;;;;;;;;;37.25;25.25;;;;;6.69;80.52;103224.28;5056371;28;45450;-66
2022/01/23 02:08:30;;;;;;;;;33.25;29.50;;;;;6.79;79.86;103222.81;5057853;28;45410;-66
2022/01/23 02:11:03;;;;;;;;;45.50;30.50;;;;;6.82;79.74;103217.75;5055556;28;45446;-65
2022/01/23 02:13:41;;;;;;;;;38.00;24.00;;;;;6.85;79.60;103222.13;5057011;28;45724;-67
2022/01/23 02:51:51;;;;;;;;;38.00;25.75;;;;;6.70;79.73;103189.84;5059207;28;46782;-65
2022/01/23 02:54:30;;;;;;;;;36.75;28.00;;;;;6.73;80.01;103183.88;5059732;28;45465;-65
2022/01/23 02:56:58;;;;;;;;;34.75;27.75;;;;;6.79;79.68;103184.03;5059836;28;45268;-65
2022/01/23 02:59:30;;;;;;;;;29.25;28.50;;;;;6.77;79.55;103177.97;5059114;28;45292;-65
2022/01/23 03:02:25;;;;;;;;;35.00;27.75;;;;;6.80;79.59;103180.63;5059745;28;45290;-65
2022/01/23 03:04:53;;;;;;;;;38.50;28.25;;;;;6.82;79.47;103191.03;5046666;28;45326;-65
2022/01/23 03:10:08;;;;;;;;;34.50;27.25;;;;;6.82;79.76;103175.53;5050911;28;45382;-65
2022/01/23 03:15:26;;;;;;;;;44.00;35.25;;;;;6.85;79.49;103176.47;5062888;28;45796;-65
2022/01/23 03:26:22;;;;;;;;;36.50;25.50;;;;;6.83;79.44;103167.81;5062748;28;45911;-65
2022/01/23 03:29:04;;;;;;;;;42.00;29.75;;;;;6.83;79.46;103161.75;5062797;28;45464;-66
2022/01/23 03:31:52;;;;;;;;;36.00;30.50;;;;;6.90;79.51;103163.66;5062847;28;45390;-66
2022/01/23 03:34:20;;;;;;;;;35.50;28.50;;;;;6.85;79.40;103150.63;5050393;28;46986;-66
2022/01/23 03:36:45;;;;;;;;;38.00;27.25;;;;;6.88;79.18;103161.03;5062347;28;45403;-66
2022/01/23 03:39:11;;;;;;;;;33.25;25.75;;;;;6.87;79.35;103167.03;5061496;28;45375;-66
2022/01/23 03:41:39;;;;;;;;;27.50;16.75;;;;;6.80;79.28;103157.34;5062569;28;45246;-66
2022/01/23 03:44:06;;;;;;;;;30.75;22.00;;;;;6.74;79.19;103158.91;5062215;28;46042;-65
2022/01/23 03:51:54;;;;;;;;;34.75;27.50;;;;;6.66;79.61;103156.13;5048890;28;45380;-69
2022/01/23 03:54:20;;;;;;;;;30.25;25.50;;;;;6.70;79.52;103157.97;5062323;28;46253;-69
2022/01/23 03:56:45;;;;;;;;;32.25;24.75;;;;;6.74;79.92;103157.22;5055635;28;45462;-68
2022/01/23 03:59:11;;;;;;;;;35.00;22.50;;;;;6.75;79.73;103166.69;5060504;28;45371;-67
2022/01/23 04:01:36;;;;;;;;;39.50;28.50;;;;;6.72;79.79;103158.88;5061048;28;45481;-70
2022/01/23 04:04:06;;;;;;;;;33.00;23.00;;;;;6.78;79.60;103156.44;5048120;28;46733;-69
2022/01/23 04:06:33;;;;;;;;;30.25;24.00;;;;;6.75;79.35;103151.19;5060039;28;45354;-68
2022/01/23 04:08:58;;;;;;;;;30.50;26.00;;;;;6.73;79.78;103147.69;5060227;28;45607;-67
2022/01/23 04:11:23;;;;;;;;;40.00;26.50;;;;;6.72;79.87;103146.81;5059613;28;45365;-65
2022/01/23 04:14:04;;;;;;;;;32.00;23.75;;;;;6.76;79.87;103144.31;5061706;28;46060;-67
2022/01/23 04:16:45;;;;;;;;;30.00;23.75;;;;;6.77;79.75;103140.91;5061416;28;45279;-64
2022/01/23 04:45:18;;;;;;;;;29.00;21.50;;;;;6.72;79.19;103156.28;5061893;28;45359;-62
2022/01/23 04:59:52;;;;;;;;;32.00;23.25;;;;;6.61;78.05;103155.13;5061012;28;45303;-67
2022/01/23 05:04:44;;;;;;;;;38.50;23.00;;;;;6.47;78.79;103159.03;5047611;28;45238;-64
2022/01/23 05:07:11;;;;;;;;;26.50;18.75;;;;;6.46;79.16;103158.16;5060849;28;45335;-64
2022/01/23 05:09:37;;;;;;;;;35.25;23.50;;;;;6.48;79.61;103158.22;5061322;28;45454;-64
2022/01/23 05:12:08;;;;;;;;;31.00;27.00;;;;;6.55;79.24;103160.13;5058722;28;45227;-64
2022/01/23 05:14:37;;;;;;;;;30.50;21.50;;;;;6.53;79.18;103157.50;5060756;28;45610;-64
2022/01/23 05:17:05;;;;;;;;;31.50;24.75;;;;;6.54;79.13;103151.50;5061036;28;46626;-64
2022/01/23 05:19:32;;;;;;;;;39.00;29.25;;;;;6.54;79.49;103151.50;5060843;28;45384;-66
2022/01/23 05:22:18;;;;;;;;;34.00;26.50;;;;;6.58;79.47;103162.78;5056528;28;46013;-65
2022/01/23 05:24:51;;;;;;;;;32.25;26.50;;;;;6.56;79.45;103164.44;5061304;28;45315;-64
2022/01/23 05:27:16;;;;;;;;;29.75;21.50;;;;;6.54;79.92;103161.81;5059941;28;46782;-63
2022/01/23 05:29:42;;;;;;;;;37.75;29.00;;;;;6.54;79.49;103160.94;5060644;28;45323;-63
2022/01/23 05:32:10;;;;;;;;;35.75;25.00;;;;;6.53;79.39;103161.78;5060972;28;45243;-65
2022/01/23 05:34:35;;;;;;;;;35.25;22.75;;;;;6.54;79.83;103156.66;5060861;28;45512;-66
2022/01/23 05:37:01;;;;;;;;;34.00;23.50;;;;;6.51;79.27;103153.13;5059198;28;46964;-65
2022/01/23 05:39:31;;;;;;;;;27.25;13.50;;;;;6.54;79.64;103167.00;5060301;28;45251;-65
2022/01/23 05:42:04;;;;;;;;;34.50;25.25;;;;;6.54;79.28;103155.78;5057852;28;46606;-65
2022/01/23 05:44:29;;;;;;;;;40.00;27.00;;;;;6.57;79.40;103161.03;5059369;28;45397;-65
2022/01/23 05:46:55;;;;;;;;;29.75;17.75;;;;;6.53;79.19;103160.06;5059704;28;45597;-64
2022/01/23 05:49:21;;;;;;;;;36.00;30.25;;;;;6.49;79.14;103158.25;5059773;28;45219;-65
2022/01/23 05:51:46;;;;;;;;;34.75;25.50;;;;;6.45;79.66;103165.88;5059723;28;45570;-65
2022/01/23 05:54:11;;;;;;;;;30.00;25.50;;;;;6.42;79.33;103158.91;5059927;28;45351;-65
2022/01/23 05:56:36;;;;;;;;;36.75;24.50;;;;;6.42;79.26;103165.78;5060106;28;45502;-65
2022/01/23 05:59:02;;;;;;;;;33.00;24.00;;;;;6.44;79.54;103169.28;5061664;28;45438;-66
2022/01/23 06:01:27;;;;;;;;;32.75;25.75;;;;;6.41;79.36;103164.91;5057824;28;45493;-64
2022/01/23 06:03:53;;;;;;;;;31.00;24.00;;;;;6.40;79.49;103171.75;5061693;28;45325;-65
2022/01/23 06:06:18;;;;;;;;;32.25;19.25;;;;;6.41;79.91;103164.91;5059034;28;46295;-65
2022/01/23 06:08:43;;;;;;;;;34.50;23.00;;;;;6.45;79.71;103165.88;5060001;28;45307;-64
2022/01/23 06:11:09;;;;;;;;;38.50;23.00;;;;;6.49;79.45;103170.28;5060332;28;45319;-64
2022/01/23 06:13:34;;;;;;;;;27.25;20.25;;;;;6.46;79.15;103167.63;5060054;28;45346;-64
2022/01/23 06:16:01;;;;;;;;;26.25;14.50;;;;;6.46;79.43;103173.66;5056984;28;46100;-64
2022/01/23 06:18:27;;;;;;;;;23.25;15.25;;;;;6.47;79.19;103180.56;5059952;28;45256;-65
2022/01/23 06:20:52;;;;;;;;;32.00;21.75;;;;;6.50;78.82;103172.03;5059535;28;45290;-63
2022/01/23 06:23:18;;;;;;;;;24.75;16.25;;;;;6.46;78.51;103165.91;5055940;28;45449;-63
2022/01/23 06:25:46;;;;;;;;;26.00;19.75;;;;;6.47;78.43;103174.53;5059356;28;46248;-64
2022/01/23 06:28:21;;;;;;;;;25.00;14.50;;;;;6.47;78.60;103169.38;5059167;28;45335;-66
2022/01/23 06:30:46;;;;;;;;;21.75;16.75;;;;;6.49;78.24;103162.53;5059261;28;45477;-67
2022/01/23 06:33:11;;;;;;;;;21.75;16.50;;;;;6.48;78.50;103163.38;5059318;28;45613;-68
2022/01/23 06:35:37;;;;;;;;;22.50;17.50;;;;;6.49;78.28;103167.69;5058722;28;46005;-64
2022/01/23 06:38:03;;;;;;;;;25.00;15.25;;;;;6.49;78.34;103162.53;5059185;28;45500;-65
2022/01/23 06:40:28;;;;;;;;;23.50;17.00;;;;;6.48;78.43;103153.03;5058975;28;45455;-67
2022/01/23 06:42:54;;;;;;;;;23.00;19.75;;;;;6.53;78.39;103179.88;5062977;28;45609;-67
2022/01/23 06:45:19;;;;;;;;;23.25;17.00;;;;;6.50;78.12;103153.94;5066113;28;46172;-70
2022/01/23 06:47:44;;;;;;;;;27.75;15.50;;;;;6.48;78.11;103172.00;5074456;28;45468;-68
2022/01/23 06:50:10;;;;;;;;;22.75;13.00;;;;;6.47;78.55;103162.50;5059981;28;45765;-69
2022/01/23 06:52:35;;;;;;;;;20.25;16.50;;;;;6.47;78.69;103159.91;5059621;28;45411;-68
2022/01/23 06:55:01;;;;;;;;;24.25;18.00;;;;;6.48;78.58;103172.00;5059388;28;45327;-71
2022/01/23 06:57:26;;;;;;;;;24.75;18.50;;;;;6.43;78.28;103172.72;5058921;28;45415;-73
2022/01/23 06:59:51;;;;;;;;;22.25;14.50;;;;;6.35;78.59;103173.34;5059100;28;45379;-68
2022/01/23 07:02:17;;;;;;;;;21.25;14.75;;;;;6.29;78.95;103175.75;5057964;28;45624;-67
2022/01/23 07:04:42;;;;;;;;;18.75;13.75;;;;;6.30;79.27;103181.78;5057486;28;45216;-62
2022/01/23 07:07:08;;;;;;;;;19.00;15.00;;;;;6.32;79.46;103181.00;5058521;28;45245;-69
2022/01/23 07:09:33;;;;;;;;;20.00;16.00;;;;;6.37;79.25;103183.72;5059372;28;45279;-70
2022/01/23 07:11:59;;;;;;;;;21.00;14.00;;;;;6.43;79.48;103183.91;5061177;28;45215;-70
2022/01/23 07:14:24;;;;;;;;;24.75;17.25;;;;;6.46;79.28;103183.13;5058814;28;46122;-67
2022/01/23 07:16:50;;;;;;;;;20.25;16.50;;;;;6.49;79.13;103178.91;5057089;28;45477;-70
2022/01/23 07:19:15;;;;;;;;;16.00;14.00;;;;;6.45;78.95;103182.25;5058799;28;45276;-70
2022/01/23 07:21:40;;;;;;;;;19.50;14.50;;;;;6.42;78.85;103179.56;5059945;28;45371;-69
2022/01/23 07:24:06;;;;;;;;;20.00;17.25;;;;;6.41;78.91;103180.41;5059109;28;46509;-67
2022/01/23 07:26:33;;;;;;;;;25.00;16.50;;;;;6.40;78.82;103189.84;5058846;28;45378;-68
2022/01/23 07:29:01;;;;;;;;;14.50;14.00;;;;;6.36;78.00;103184.53;5058421;28;45560;-68
2022/01/23 07:31:55;;;;;;;;;16.75;13.25;;;;;6.31;78.51;103186.13;5058759;28;45274;-68
2022/01/23 07:34:17;;;;;;;;;23.75;16.75;;;;;6.33;78.52;103181.88;5057854;28;45323;-68
2022/01/23 07:36:43;;;;;;;;;22.00;13.00;;;;;6.24;78.72;103171.28;5058226;28;45245;-68
2022/01/23 07:39:08;;;;;;;;;21.75;15.25;;;;;6.28;78.73;103179.16;5057252;28;45315;-67
2022/01/23 07:41:34;;;;;;;;;17.50;14.25;;;;;6.09;78.69;103153.63;5058236;28;45567;-66
2022/01/23 07:43:59;;;;;;;;;13.75;13.75;;;;;6.27;78.79;103173.97;5058495;28;46017;-68
2022/01/23 07:46:25;;;;;;;;;16.50;12.50;;;;;6.31;78.25;103178.38;5058060;28;45331;-67
2022/01/23 07:48:50;;;;;;;;;25.25;13.50;;;;;6.29;78.40;103167.13;5058719;28;45346;-67
2022/01/23 07:51:16;;;;;;;;;8.00;6.25;;;;;6.34;78.81;103174.16;5059758;28;45280;-67
2022/01/23 07:53:42;;;;;;;;;14.50;13.25;;;;;6.35;78.63;103175.91;5061792;28;45406;-70
2022/01/23 07:56:07;;;;;;;;;17.50;15.00;;;;;6.40;78.89;103183.78;5061828;28;45322;-69
2022/01/23 07:58:32;;;;;;;;;23.75;19.50;;;;;6.44;78.49;103189.94;5061921;28;45315;-66
2022/01/23 08:00:58;;;;;;;;;23.00;14.00;;;;;6.44;78.15;103188.25;5061791;28;45458;-67
2022/01/23 08:03:23;;;;;;;;;25.75;16.25;;;;;6.44;78.37;103197.69;5055393;28;45645;-66
2022/01/23 08:05:49;;;;;;;;;14.75;12.25;;;;;6.40;77.86;103192.41;5055269;28;45263;-65
2022/01/23 08:08:14;;;;;;;;;15.50;14.75;;;;;6.37;78.62;103213.00;5062206;28;45287;-68
2022/01/23 08:10:40;;;;;;;;;23.25;17.00;;;;;6.36;78.62;103216.41;5062195;28;45649;-65
2022/01/23 08:13:05;;;;;;;;;19.00;11.00;;;;;6.31;77.92;103207.66;5048747;28;47012;-65
2022/01/23 08:15:32;;;;;;;;;19.00;16.75;;;;;6.24;78.43;103223.81;5061782;28;45202;-68
2022/01/23 08:18:06;;;;;;;;;22.50;18.75;;;;;6.28;78.50;103214.44;5062513;28;45342;-68
2022/01/23 08:20:33;;;;;;;;;17.75;12.50;;;;;6.32;78.74;103217.16;5059142;28;45382;-66
2022/01/23 08:23:01;;;;;;;;;24.25;16.25;;;;;6.37;78.46;103222.44;5057796;28;46672;-67
2022/01/23 08:25:28;;;;;;;;;27.00;19.75;;;;;6.39;78.50;103223.38;5061723;28;45327;-68
2022/01/23 08:27:53;;;;;;;;;21.75;17.00;;;;;6.42;78.77;103223.50;5062318;28;45233;-66
2022/01/23 08:30:19;;;;;;;;;33.25;22.50;;;;;6.43;78.29;103225.25;5061364;28;45514;-66
2022/01/23 08:32:44;;;;;;;;;28.50;23.00;;;;;6.38;77.84;103216.44;5061906;28;45347;-67
2022/01/23 08:35:10;;;;;;;;;33.50;19.00;;;;;6.32;77.94;103221.44;5061679;28;45141;-65
2022/01/23 08:37:36;;;;;;;;;28.50;19.00;;;;;6.26;77.99;103219.56;5060716;28;45320;-66
2022/01/23 08:40:02;;;;;;;;;16.00;15.25;;;;;6.23;77.92;103226.34;5061609;28;45239;-66
2022/01/23 08:42:27;;;;;;;;;25.50;22.75;;;;;6.23;77.85;103214.31;5061633;28;46193;-68
2022/01/23 08:44:54;;;;;;;;;29.25;19.25;;;;;6.28;77.94;103214.44;5061134;28;45370;-79
2022/01/23 08:47:22;;;;;;;;;27.75;19.25;;;;;6.30;77.97;103213.66;5061568;28;45294;-67
2022/01/23 08:49:49;;;;;;;;;29.00;20.25;;;;;6.41;77.92;103232.06;5060037;28;45538;-66
2022/01/23 08:52:17;;;;;;;;;27.75;23.50;;;;;6.44;77.98;103220.94;5061126;28;46944;-66
2022/01/23 08:54:50;;;;;;;;;26.00;20.00;;;;;6.45;78.29;103215.81;5061287;28;45794;-63
2022/01/23 08:57:19;;;;;;;;;29.50;25.75;;;;;6.44;77.85;103218.38;5061354;28;45286;-63
2022/01/23 08:59:44;;;;;;;;;27.50;21.25;;;;;6.46;77.65;103216.69;5060933;28;45473;-66
2022/01/23 09:02:10;;;;;;;;;32.00;21.75;;;;;6.52;77.85;103225.50;5061209;28;45350;-69
2022/01/23 09:04:36;;;;;;;;;28.50;20.25;;;;;6.51;77.67;103222.88;5047657;28;45312;-64
2022/01/23 09:07:03;;;;;;;;;35.75;22.75;;;;;6.47;77.78;103218.44;5060932;28;45268;-66
2022/01/23 09:09:31;;;;;;;;;34.00;25.50;;;;;6.52;77.71;103216.88;5061118;28;45166;-67
2022/01/23 09:12:05;;;;;;;;;32.50;24.75;;;;;6.62;77.80;103226.66;5061033;28;45433;-64
2022/01/23 09:14:31;;;;;;;;;30.50;26.25;;;;;6.61;77.39;103224.91;5060676;28;45869;-65
2022/01/23 09:16:57;;;;;;;;;28.50;25.75;;;;;6.59;77.07;103219.66;5059914;28;45504;-65
2022/01/23 09:19:25;;;;;;;;;29.25;21.75;;;;;6.50;76.99;103223.69;5060801;28;45463;-62
2022/01/23 09:21:53;;;;;;;;;33.00;24.75;;;;;6.48;77.53;103221.06;5054402;28;45278;-63
2022/01/23 09:24:20;;;;;;;;;34.75;23.50;;;;;6.48;77.18;103233.13;5060685;28;45818;-64
2022/01/23 09:26:52;;;;;;;;;27.25;19.00;;;;;6.53;77.45;103223.78;5060894;28;45510;-63
2022/01/23 09:29:29;;;;;;;;;24.00;21.00;;;;;6.55;77.51;103211.78;5048000;28;45744;-71
2022/01/23 09:31:55;;;;;;;;;22.25;17.75;;;;;6.62;77.13;103226.66;5060736;28;46071;-61
2022/01/23 09:34:23;;;;;;;;;24.50;21.00;;;;;6.61;77.02;103228.34;5060961;28;45169;-63
2022/01/23 09:36:49;;;;;;;;;26.75;23.25;;;;;6.56;77.25;103231.63;5060688;28;45407;-64
2022/01/23 09:39:15;;;;;;;;;27.25;20.50;;;;;6.55;77.22;103228.16;5060962;28;45261;-63
2022/01/23 09:41:46;;;;;;;;;29.50;21.75;;;;;6.59;77.27;103236.88;5058976;28;47372;-63
2022/01/23 09:44:15;;;;;;;;;28.75;21.50;;;;;6.60;77.17;103234.31;5060482;28;45461;-66
2022/01/23 09:46:42;;;;;;;;;25.50;16.75;;;;;6.60;77.04;103230.88;5060626;28;45347;-64
2022/01/23 09:49:09;;;;;;;;;29.00;24.50;;;;;6.61;77.25;103235.22;5060795;28;45413;-66
2022/01/23 09:51:40;;;;;;;;;32.75;25.50;;;;;6.60;77.47;103223.13;5059787;28;46189;-66
2022/01/23 09:54:07;;;;;;;;;44.75;35.75;;;;;6.67;77.23;103225.06;5060680;28;45880;-63
2022/01/23 09:56:34;;;;;;;;;29.75;21.25;;;;;6.67;77.15;103225.94;5060430;28;45247;-66
2022/01/23 09:59:01;;;;;;;;;28.75;22.50;;;;;6.63;76.50;103231.84;5060212;28;45280;-65
2022/01/23 10:01:27;;;;;;;;;25.25;18.50;;;;;6.58;76.92;103235.13;5091872;27;46510;-67
2022/01/23 10:03:53;;;;;;;;;18.75;14.50;;;;;6.46;76.77;103224.44;5049168;28;45402;-67
2022/01/23 10:06:19;;;;;;;;;18.00;13.50;;;;;6.50;77.17;103239.19;5057310;28;45280;-65
2022/01/23 10:08:44;;;;;;;;;18.25;16.50;;;;;6.45;77.30;103223.56;5060472;28;45330;-65
2022/01/23 10:11:12;;;;;;;;;22.75;18.25;;;;;6.53;76.89;103235.00;5059964;28;45281;-67
2022/01/23 10:13:40;;;;;;;;;19.00;16.75;;;;;6.54;76.30;103234.16;5059275;28;45243;-68
2022/01/23 10:16:06;;;;;;;;;23.00;18.50;;;;;6.48;76.27;103239.16;5058870;28;45287;-67
2022/01/23 10:18:31;;;;;;;;;23.50;19.25;;;;;6.47;76.66;103234.81;5058836;28;45506;-67
2022/01/23 10:20:57;;;;;;;;;24.50;13.75;;;;;6.48;77.07;103236.56;5075194;28;47342;-66
2022/01/23 10:23:24;;;;;;;;;20.75;18.25;;;;;6.55;77.11;103237.63;5054212;28;45354;-67
2022/01/23 10:25:52;;;;;;;;;19.75;17.50;;;;;6.54;76.12;103233.28;5057505;28;45318;-67
2022/01/23 10:28:20;;;;;;;;;18.75;15.25;;;;;6.44;76.51;103236.44;5059645;28;45612;-68
2022/01/23 10:30:50;;;;;;;;;18.75;14.00;;;;;6.43;76.62;103237.28;5059369;28;46081;-68
2022/01/23 10:33:18;;;;;;;;;21.75;18.25;;;;;6.43;77.15;103240.72;5059950;28;45272;-68
2022/01/23 10:35:58;;;;;;;;;21.75;17.25;;;;;6.46;77.45;103237.38;5046607;28;45277;-68
2022/01/23 10:38:26;;;;;;;;;14.50;12.50;;;;;6.46;77.27;103233.06;5058424;28;45395;-70
2022/01/23 10:41:07;;;;;;;;;21.00;17.00;;;;;6.48;77.34;103233.13;5059568;28;45339;-67
2022/01/23 10:46:40;;;;;;;;;26.00;20.00;;;;;6.55;77.36;103227.28;5058241;28;45473;-64
2022/01/23 10:49:05;;;;;;;;;22.00;15.25;;;;;6.50;77.24;103222.00;5059636;28;45434;-68
2022/01/23 10:51:36;;;;;;;;;22.75;14.00;;;;;6.51;76.99;103234.06;5059144;28;46126;-61
2022/01/23 10:54:22;;;;;;;;;25.50;22.00;;;;;6.47;76.96;103226.19;5059604;28;45212;-60
2022/01/23 10:57:07;;;;;;;;;26.75;16.00;;;;;6.49;77.12;103224.53;5047161;28;45375;-62
2022/01/23 10:59:39;;;;;;;;;19.00;14.00;;;;;6.45;77.26;103222.69;5059092;28;45362;-61
2022/01/23 11:02:10;;;;;;;;;19.75;16.00;;;;;6.45;76.96;103217.53;5058401;28;45248;-62
2022/01/23 11:04:53;;;;;;;;;19.50;17.75;;;;;6.42;77.34;103207.13;5056963;28;45724;-63
2022/01/23 11:07:19;;;;;;;;;22.75;19.00;;;;;6.43;77.62;103220.06;5059090;28;45492;-66
2022/01/23 11:09:45;;;;;;;;;27.00;17.75;;;;;6.50;77.73;103216.81;5059384;28;45338;-65
2022/01/23 11:12:28;;;;;;;;;35.25;23.00;;;;;6.54;77.64;103208.31;5059331;28;46439;-64
2022/01/23 11:17:50;;;;;;;;;18.75;14.50;;;;;6.64;76.99;103204.31;5058590;28;45441;-62
2022/01/23 11:20:31;;;;;;;;;20.00;16.25;;;;;6.66;77.16;103206.09;5040434;28;45435;-62
2022/01/23 11:23:01;;;;;;;;;31.00;19.25;;;;;6.61;77.10;103202.53;5058735;28;45631;-67
2022/01/23 11:25:26;;;;;;;;;30.75;22.75;;;;;6.62;77.35;103187.91;5056362;28;45815;-62
2022/01/23 11:28:02;;;;;;;;;23.50;16.00;;;;;6.60;77.31;103189.53;5059559;28;45366;-61
2022/01/23 11:30:46;;;;;;;;;26.75;17.75;;;;;6.60;77.14;103184.38;5062277;28;45319;-60
2022/01/23 11:33:16;;;;;;;;;20.75;13.50;;;;;6.59;77.17;103190.38;5062564;28;47114;-59
2022/01/23 11:35:42;;;;;;;;;28.00;16.50;;;;;6.62;77.33;103193.06;5049373;28;45516;-59
2022/01/23 11:38:12;;;;;;;;;19.00;15.00;;;;;6.62;76.45;103178.44;5062845;28;45489;-60
2022/01/23 11:50:37;;;;;;;;;19.50;14.50;;;;;6.61;76.14;103186.16;5062795;28;45275;-59
2022/01/23 11:54:39;;;;;;;;;19.00;11.75;;;;;6.53;76.29;103165.25;5060190;28;45264;-66
2022/01/23 11:57:24;;;;;;;;;19.00;18.25;;;;;6.56;76.33;103164.44;5059814;28;45989;-58
2022/01/23 11:59:50;;;;;;;;;20.75;11.00;;;;;6.61;76.27;103170.66;5062292;28;45346;-60
2022/01/23 12:02:27;;;;;;;;;22.00;16.50;;;;;6.68;76.04;103168.25;5061603;28;45289;-59
2022/01/23 12:05:19;;;;;;;;;24.00;19.25;;;;;6.74;75.82;103159.78;5061083;28;45465;-59
2022/01/23 12:08:07;;;;;;;;;24.00;19.00;;;;;6.78;75.98;103151.28;5059562;28;45429;-59
2022/01/23 12:10:49;;;;;;;;;15.00;13.25;;;;;6.79;75.33;103145.28;5049100;28;45491;-59
2022/01/23 12:19:11;;;;;;;;;11.00;11.00;;;;;6.79;75.23;103144.41;5059759;28;45380;-61
2022/01/23 12:21:37;;;;;;;;;18.50;14.00;;;;;6.81;75.27;103138.47;5058773;28;45540;-63
2022/01/23 12:24:05;;;;;;;;;17.00;13.75;;;;;6.79;75.15;103134.06;5060545;28;45435;-61
2022/01/23 12:26:31;;;;;;;;;14.25;13.50;;;;;6.79;75.17;103132.34;5060107;28;46157;-59
2022/01/23 12:29:24;;;;;;;;;21.50;15.00;;;;;6.82;75.35;103135.03;5057454;28;45701;-58
2022/01/23 12:32:17;;;;;;;;;17.50;13.50;;;;;6.81;75.45;103132.38;5057960;28;45876;-59
2022/01/23 12:34:52;;;;;;;;;17.00;13.75;;;;;6.77;75.12;103125.41;5059583;28;45553;-59
2022/01/23 12:37:18;;;;;;;;;16.00;14.00;;;;;6.75;75.08;103124.47;5058869;28;46131;-59
2022/01/23 12:39:43;;;;;;;;;19.00;16.25;;;;;6.79;75.29;103114.25;5060018;28;45391;-59
2022/01/23 12:42:09;;;;;;;;;26.25;19.50;;;;;6.78;75.16;103109.94;5060176;28;45500;-59
2022/01/23 12:44:39;;;;;;;;;21.00;11.50;;;;;6.81;75.43;103109.13;5059105;28;45554;-60
2022/01/23 12:47:19;;;;;;;;;19.50;16.75;;;;;6.88;75.25;103103.31;5061045;28;45460;-60
2022/01/23 12:49:52;;;;;;;;;22.50;16.50;;;;;6.93;74.99;103100.00;5058422;28;45329;-62
2022/01/23 12:52:20;;;;;;;;;30.75;17.00;;;;;6.99;75.33;103096.69;5057091;28;45688;-60
2022/01/23 12:54:59;;;;;;;;;24.00;17.75;;;;;7.05;75.24;103088.22;5059796;28;45359;-59
2022/01/23 12:57:38;;;;;;;;;19.50;18.00;;;;;7.07;74.64;103087.41;5057810;28;46221;-60
2022/01/23 13:00:19;;;;;;;;;18.75;16.75;;;;;7.10;74.76;103084.91;5056745;28;46072;-60
2022/01/23 13:02:49;;;;;;;;;21.00;16.00;;;;;7.10;74.56;103087.50;5060249;28;45495;-61
2022/01/23 13:05:16;;;;;;;;;22.25;19.50;;;;;7.08;74.76;103073.66;5058570;28;45481;-63
2022/01/23 13:08:00;;;;;;;;;21.50;16.25;;;;;7.09;74.05;103077.13;5057791;28;47460;-65
2022/01/23 13:13:37;;;;;;;;;19.00;16.50;;;;;7.14;74.81;103073.78;5058283;28;45334;-61
2022/01/23 13:18:45;;;;;;;;;27.25;18.00;;;;;7.27;74.55;103075.84;5060276;28;46118;-59
2022/01/23 13:32:41;;;;;;;;;22.25;21.50;;;;;7.19;74.51;103045.44;5059806;28;45458;-64
2022/01/23 13:35:12;;;;;;;;;23.25;23.25;;;;;7.19;74.29;103045.44;5065094;28;45849;-62
2022/01/23 13:37:41;;;;;;;;;19.50;16.00;;;;;7.18;73.67;103047.16;5060068;28;45346;-60
2022/01/23 13:40:09;;;;;;;;;26.00;20.25;;;;;7.12;74.24;103048.75;5060378;28;46171;-65
2022/01/23 13:51:42;;;;;;;;;20.75;19.00;;;;;7.05;74.27;103029.63;5048409;28;45337;-69
2022/01/23 13:59:58;;;;;;;;;36.00;22.75;;;;;6.89;74.94;103019.75;5060492;28;45430;-65
2022/01/23 14:02:25;;;;;;;;;30.50;23.25;;;;;6.92;74.71;103010.34;5044267;28;47078;-65
2022/01/23 14:05:03;;;;;;;;;22.75;18.50;;;;;6.96;74.69;103019.94;5059296;28;45757;-71
2022/01/23 14:07:30;;;;;;;;;22.25;16.50;;;;;6.98;74.21;103009.63;5060105;28;45334;-67
2022/01/23 14:09:58;;;;;;;;;31.00;24.50;;;;;6.98;74.74;103002.75;5059881;28;45345;-72
2022/01/23 14:12:25;;;;;;;;;27.75;24.50;;;;;7.00;74.60;102988.13;5066740;28;45972;-73
2022/01/23 14:14:57;;;;;;;;;28.00;19.25;;;;;7.03;74.22;103002.00;5060055;27;45311;-61
2022/01/23 14:17:28;;;;;;;;;24.50;19.25;;;;;7.00;74.60;102993.31;5067385;28;45439;-76
2022/01/23 14:20:00;;;;;;;;;30.75;21.50;;;;;6.99;74.35;102993.28;5059489;28;45270;-65
2022/01/23 14:22:31;;;;;;;;;27.75;19.00;;;;;7.00;74.54;102997.59;5059345;28;46293;-65
2022/01/23 14:25:32;;;;;;;;;30.75;20.25;;;;;7.09;74.24;102990.06;5083590;27;46216;-65
2022/01/23 14:28:13;;;;;;;;;24.00;22.50;;;;;7.09;74.29;102997.84;5026992;28;45707;-66
2022/01/23 14:30:47;;;;;;;;;31.75;25.75;;;;;7.10;74.62;102996.13;5056102;28;45504;-65
2022/01/23 14:33:27;;;;;;;;;20.75;18.00;;;;;7.07;74.19;102986.59;5060625;28;46101;-68
2022/01/23 14:35:52;;;;;;;;;35.00;24.50;;;;;7.09;74.54;102991.78;5063018;28;45844;-66
2022/01/23 14:38:23;;;;;;;;;24.00;20.25;;;;;7.13;74.81;102988.44;5064626;27;45512;-67
2022/01/23 14:40:56;;;;;;;;;23.50;19.75;;;;;7.11;74.30;102990.13;5058523;28;45925;-69
2022/01/23 14:43:22;;;;;;;;;35.25;25.00;;;;;7.08;75.94;102980.56;5061158;28;48355;-56